sensor_id;sensor_type;location;lat;lon;timestamp;P1;durP1;ratioP1;P2;durP2;ratioP2
58468;SDS011;44257;44.804;10.220;2024-02-26T00:01:42;8.38;;;2.67;;
58468;SDS011;44257;44.804;10.220;2024-02-26T00:04:09;4.10;;;2.60;;
58468;SDS011;44257;44.804;10.220;2024-02-26T00:06:35;4.15;;;2.83;;
58468;SDS011;44257;44.804;10.220;2024-02-26T00:09:02;4.82;;;2.83;;
58468;SDS011;44257;44.804;10.220;2024-02-26T00:11:31;4.10;;;2.70;;
58468;SDS011;44257;44.804;10.220;2024-02-26T00:13:57;4.70;;;2.83;;
58468;SDS011;44257;44.804;10.220;2024-02-26T00:16:25;4.13;;;2.53;;
58468;SDS011;44257;44.804;10.220;2024-02-26T00:18:51;6.80;;;3.10;;
58468;SDS011;44257;44.804;10.220;2024-02-26T00:21:17;4.57;;;2.45;;
58468;SDS011;44257;44.804;10.220;2024-02-26T00:23:43;4.30;;;2.80;;
58468;SDS011;44257;44.804;10.220;2024-02-26T00:26:09;4.18;;;2.40;;
58468;SDS011;44257;44.804;10.220;2024-02-26T00:28:36;5.13;;;2.60;;
58468;SDS011;44257;44.804;10.220;2024-02-26T00:31:02;5.55;;;2.65;;
58468;SDS011;44257;44.804;10.220;2024-02-26T00:33:28;4.45;;;2.92;;
58468;SDS011;44257;44.804;10.220;2024-02-26T00:35:54;4.75;;;2.75;;
58468;SDS011;44257;44.804;10.220;2024-02-26T00:38:20;4.32;;;2.65;;
58468;SDS011;44257;44.804;10.220;2024-02-26T00:40:46;5.85;;;3.20;;
58468;SDS011;44257;44.804;10.220;2024-02-26T00:43:12;5.03;;;3.00;;
58468;SDS011;44257;44.804;10.220;2024-02-26T00:45:38;5.28;;;3.10;;
58468;SDS011;44257;44.804;10.220;2024-02-26T00:48:04;4.70;;;3.03;;
58468;SDS011;44257;44.804;10.220;2024-02-26T00:50:31;5.38;;;3.25;;
58468;SDS011;44257;44.804;10.220;2024-02-26T00:52:57;3.97;;;2.72;;
58468;SDS011;44257;44.804;10.220;2024-02-26T00:55:23;7.00;;;3.17;;
58468;SDS011;44257;44.804;10.220;2024-02-26T00:57:48;6.95;;;3.10;;
58468;SDS011;44257;44.804;10.220;2024-02-26T01:00:14;6.60;;;3.33;;
58468;SDS011;44257;44.804;10.220;2024-02-26T01:02:41;5.95;;;3.30;;
58468;SDS011;44257;44.804;10.220;2024-02-26T01:05:07;5.97;;;2.90;;
58468;SDS011;44257;44.804;10.220;2024-02-26T01:07:36;4.85;;;3.22;;
58468;SDS011;44257;44.804;10.220;2024-02-26T01:10:02;5.28;;;3.47;;
58468;SDS011;44257;44.804;10.220;2024-02-26T01:12:29;6.32;;;3.35;;
58468;SDS011;44257;44.804;10.220;2024-02-26T01:14:55;4.85;;;3.03;;
58468;SDS011;44257;44.804;10.220;2024-02-26T01:17:21;4.30;;;3.10;;
58468;SDS011;44257;44.804;10.220;2024-02-26T01:19:46;3.72;;;2.85;;
58468;SDS011;44257;44.804;10.220;2024-02-26T01:22:12;8.10;;;4.00;;
58468;SDS011;44257;44.804;10.220;2024-02-26T01:24:38;6.25;;;3.13;;
58468;SDS011;44257;44.804;10.220;2024-02-26T01:27:04;5.13;;;3.10;;
58468;SDS011;44257;44.804;10.220;2024-02-26T01:29:31;5.07;;;3.05;;
58468;SDS011;44257;44.804;10.220;2024-02-26T01:31:57;4.68;;;2.75;;
58468;SDS011;44257;44.804;10.220;2024-02-26T01:34:23;5.10;;;2.70;;
58468;SDS011;44257;44.804;10.220;2024-02-26T01:36:49;4.90;;;3.08;;
58468;SDS011;44257;44.804;10.220;2024-02-26T01:39:15;5.32;;;3.08;;
58468;SDS011;44257;44.804;10.220;2024-02-26T01:41:40;4.90;;;3.50;;
58468;SDS011;44257;44.804;10.220;2024-02-26T01:44:06;4.55;;;3.00;;
58468;SDS011;44257;44.804;10.220;2024-02-26T01:46:33;4.00;;;2.70;;
58468;SDS011;44257;44.804;10.220;2024-02-26T01:49:01;5.22;;;3.20;;
58468;SDS011;44257;44.804;10.220;2024-02-26T01:51:28;4.03;;;2.95;;
58468;SDS011;44257;44.804;10.220;2024-02-26T01:53:56;4.70;;;3.05;;
58468;SDS011;44257;44.804;10.220;2024-02-26T01:56:23;5.07;;;3.30;;
58468;SDS011;44257;44.804;10.220;2024-02-26T01:58:55;4.55;;;3.20;;
58468;SDS011;44257;44.804;10.220;2024-02-26T02:01:22;6.43;;;3.38;;
58468;SDS011;44257;44.804;10.220;2024-02-26T02:03:55;7.40;;;3.10;;
58468;SDS011;44257;44.804;10.220;2024-02-26T02:06:23;4.22;;;3.03;;
58468;SDS011;44257;44.804;10.220;2024-02-26T02:08:49;3.90;;;2.83;;
58468;SDS011;44257;44.804;10.220;2024-02-26T02:11:15;5.95;;;2.80;;
58468;SDS011;44257;44.804;10.220;2024-02-26T02:13:42;5.32;;;3.10;;
58468;SDS011;44257;44.804;10.220;2024-02-26T02:16:08;5.25;;;3.20;;
58468;SDS011;44257;44.804;10.220;2024-02-26T02:18:34;4.22;;;3.05;;
58468;SDS011;44257;44.804;10.220;2024-02-26T02:21:00;4.93;;;3.20;;
58468;SDS011;44257;44.804;10.220;2024-02-26T02:23:27;5.47;;;2.83;;
58468;SDS011;44257;44.804;10.220;2024-02-26T02:25:52;4.78;;;3.17;;
58468;SDS011;44257;44.804;10.220;2024-02-26T02:28:22;5.03;;;2.83;;
58468;SDS011;44257;44.804;10.220;2024-02-26T02:30:51;5.53;;;2.60;;
58468;SDS011;44257;44.804;10.220;2024-02-26T02:33:17;5.80;;;3.28;;
58468;SDS011;44257;44.804;10.220;2024-02-26T02:35:43;4.15;;;2.75;;
58468;SDS011;44257;44.804;10.220;2024-02-26T02:38:09;6.30;;;2.90;;
58468;SDS011;44257;44.804;10.220;2024-02-26T02:40:35;3.97;;;3.13;;
58468;SDS011;44257;44.804;10.220;2024-02-26T02:43:01;5.35;;;3.38;;
58468;SDS011;44257;44.804;10.220;2024-02-26T02:45:28;6.05;;;3.58;;
58468;SDS011;44257;44.804;10.220;2024-02-26T02:47:54;5.07;;;3.60;;
58468;SDS011;44257;44.804;10.220;2024-02-26T02:50:20;7.63;;;3.78;;
58468;SDS011;44257;44.804;10.220;2024-02-26T02:52:45;5.47;;;3.45;;
58468;SDS011;44257;44.804;10.220;2024-02-26T02:55:12;6.90;;;3.50;;
58468;SDS011;44257;44.804;10.220;2024-02-26T02:57:39;5.50;;;3.03;;
58468;SDS011;44257;44.804;10.220;2024-02-26T03:00:09;4.65;;;3.35;;
58468;SDS011;44257;44.804;10.220;2024-02-26T03:02:36;4.18;;;3.13;;
58468;SDS011;44257;44.804;10.220;2024-02-26T03:05:05;4.70;;;3.40;;
58468;SDS011;44257;44.804;10.220;2024-02-26T03:07:31;5.00;;;3.10;;
58468;SDS011;44257;44.804;10.220;2024-02-26T03:09:57;4.60;;;3.35;;
58468;SDS011;44257;44.804;10.220;2024-02-26T03:12:23;5.90;;;4.05;;
58468;SDS011;44257;44.804;10.220;2024-02-26T03:14:49;5.05;;;3.20;;
58468;SDS011;44257;44.804;10.220;2024-02-26T03:17:15;5.10;;;3.38;;
58468;SDS011;44257;44.804;10.220;2024-02-26T03:19:40;5.05;;;3.22;;
58468;SDS011;44257;44.804;10.220;2024-02-26T03:22:06;4.80;;;2.72;;
58468;SDS011;44257;44.804;10.220;2024-02-26T03:24:32;5.15;;;3.00;;
58468;SDS011;44257;44.804;10.220;2024-02-26T03:26:58;4.10;;;2.90;;
58468;SDS011;44257;44.804;10.220;2024-02-26T03:29:24;4.10;;;2.80;;
58468;SDS011;44257;44.804;10.220;2024-02-26T03:31:50;4.18;;;2.78;;
58468;SDS011;44257;44.804;10.220;2024-02-26T03:34:16;4.93;;;2.50;;
58468;SDS011;44257;44.804;10.220;2024-02-26T03:36:43;8.38;;;2.90;;
58468;SDS011;44257;44.804;10.220;2024-02-26T03:39:10;5.25;;;2.92;;
58468;SDS011;44257;44.804;10.220;2024-02-26T03:41:36;3.92;;;2.80;;
58468;SDS011;44257;44.804;10.220;2024-02-26T03:44:02;3.80;;;2.70;;
58468;SDS011;44257;44.804;10.220;2024-02-26T03:46:28;3.55;;;2.63;;
58468;SDS011;44257;44.804;10.220;2024-02-26T03:48:54;5.10;;;2.20;;
58468;SDS011;44257;44.804;10.220;2024-02-26T03:51:20;3.63;;;2.40;;
58468;SDS011;44257;44.804;10.220;2024-02-26T03:53:46;5.78;;;2.30;;
58468;SDS011;44257;44.804;10.220;2024-02-26T03:56:12;5.10;;;2.30;;
58468;SDS011;44257;44.804;10.220;2024-02-26T03:58:40;4.47;;;2.42;;
58468;SDS011;44257;44.804;10.220;2024-02-26T04:01:07;3.83;;;2.10;;
58468;SDS011;44257;44.804;10.220;2024-02-26T04:03:34;3.55;;;2.38;;
58468;SDS011;44257;44.804;10.220;2024-02-26T04:06:00;4.80;;;3.13;;
58468;SDS011;44257;44.804;10.220;2024-02-26T04:08:27;3.72;;;2.72;;
58468;SDS011;44257;44.804;10.220;2024-02-26T04:10:53;3.88;;;2.40;;
58468;SDS011;44257;44.804;10.220;2024-02-26T04:13:19;4.80;;;2.72;;
58468;SDS011;44257;44.804;10.220;2024-02-26T04:15:45;4.22;;;2.75;;
58468;SDS011;44257;44.804;10.220;2024-02-26T04:18:12;5.72;;;3.10;;
58468;SDS011;44257;44.804;10.220;2024-02-26T04:20:39;7.57;;;2.50;;
58468;SDS011;44257;44.804;10.220;2024-02-26T04:23:07;4.32;;;2.25;;
58468;SDS011;44257;44.804;10.220;2024-02-26T04:25:33;3.50;;;2.50;;
58468;SDS011;44257;44.804;10.220;2024-02-26T04:27:59;3.97;;;2.75;;
58468;SDS011;44257;44.804;10.220;2024-02-26T04:30:25;5.65;;;3.20;;
58468;SDS011;44257;44.804;10.220;2024-02-26T04:32:51;5.57;;;3.13;;
58468;SDS011;44257;44.804;10.220;2024-02-26T04:35:17;5.75;;;2.90;;
58468;SDS011;44257;44.804;10.220;2024-02-26T04:37:43;5.18;;;3.40;;
58468;SDS011;44257;44.804;10.220;2024-02-26T04:40:09;6.88;;;4.72;;
58468;SDS011;44257;44.804;10.220;2024-02-26T04:42:35;16.23;;;12.35;;
58468;SDS011;44257;44.804;10.220;2024-02-26T04:45:01;9.40;;;6.57;;
58468;SDS011;44257;44.804;10.220;2024-02-26T04:47:27;22.73;;;13.20;;
58468;SDS011;44257;44.804;10.220;2024-02-26T04:49:53;14.65;;;8.73;;
58468;SDS011;44257;44.804;10.220;2024-02-26T04:52:19;8.32;;;6.03;;
58468;SDS011;44257;44.804;10.220;2024-02-26T04:54:45;8.48;;;6.10;;
58468;SDS011;44257;44.804;10.220;2024-02-26T04:57:11;13.10;;;7.90;;
58468;SDS011;44257;44.804;10.220;2024-02-26T04:59:37;12.93;;;7.90;;
58468;SDS011;44257;44.804;10.220;2024-02-26T05:02:03;8.13;;;6.00;;
58468;SDS011;44257;44.804;10.220;2024-02-26T05:04:29;13.38;;;8.18;;
58468;SDS011;44257;44.804;10.220;2024-02-26T05:06:55;10.00;;;8.38;;
58468;SDS011;44257;44.804;10.220;2024-02-26T05:09:21;18.08;;;12.27;;
58468;SDS011;44257;44.804;10.220;2024-02-26T05:11:47;10.75;;;8.18;;
58468;SDS011;44257;44.804;10.220;2024-02-26T05:14:13;16.70;;;9.70;;
58468;SDS011;44257;44.804;10.220;2024-02-26T05:16:39;14.48;;;12.00;;
58468;SDS011;44257;44.804;10.220;2024-02-26T05:19:05;16.75;;;11.15;;
58468;SDS011;44257;44.804;10.220;2024-02-26T05:21:31;18.95;;;13.93;;
58468;SDS011;44257;44.804;10.220;2024-02-26T05:23:57;18.13;;;13.55;;
58468;SDS011;44257;44.804;10.220;2024-02-26T05:26:23;18.58;;;15.07;;
58468;SDS011;44257;44.804;10.220;2024-02-26T05:28:49;22.73;;;15.60;;
58468;SDS011;44257;44.804;10.220;2024-02-26T05:31:15;19.85;;;16.67;;
58468;SDS011;44257;44.804;10.220;2024-02-26T05:33:42;20.40;;;15.68;;
58468;SDS011;44257;44.804;10.220;2024-02-26T05:36:08;19.92;;;14.98;;
58468;SDS011;44257;44.804;10.220;2024-02-26T05:38:34;22.20;;;15.70;;
58468;SDS011;44257;44.804;10.220;2024-02-26T05:40:59;21.35;;;15.93;;
58468;SDS011;44257;44.804;10.220;2024-02-26T05:43:26;22.98;;;14.77;;
58468;SDS011;44257;44.804;10.220;2024-02-26T05:45:52;18.02;;;14.23;;
58468;SDS011;44257;44.804;10.220;2024-02-26T05:48:18;23.27;;;17.27;;
58468;SDS011;44257;44.804;10.220;2024-02-26T05:50:45;21.17;;;15.57;;
58468;SDS011;44257;44.804;10.220;2024-02-26T05:53:11;22.38;;;16.48;;
58468;SDS011;44257;44.804;10.220;2024-02-26T05:55:37;21.05;;;16.95;;
58468;SDS011;44257;44.804;10.220;2024-02-26T05:58:03;23.80;;;18.38;;
58468;SDS011;44257;44.804;10.220;2024-02-26T06:00:29;25.55;;;19.50;;
58468;SDS011;44257;44.804;10.220;2024-02-26T06:02:56;30.17;;;21.20;;
58468;SDS011;44257;44.804;10.220;2024-02-26T06:05:21;30.38;;;22.77;;
58468;SDS011;44257;44.804;10.220;2024-02-26T06:07:47;29.20;;;23.85;;
58468;SDS011;44257;44.804;10.220;2024-02-26T06:10:13;30.60;;;23.38;;
58468;SDS011;44257;44.804;10.220;2024-02-26T06:12:39;29.92;;;24.77;;
58468;SDS011;44257;44.804;10.220;2024-02-26T06:15:05;29.52;;;24.75;;
58468;SDS011;44257;44.804;10.220;2024-02-26T06:17:32;31.27;;;26.60;;
58468;SDS011;44257;44.804;10.220;2024-02-26T06:19:59;32.33;;;26.02;;
58468;SDS011;44257;44.804;10.220;2024-02-26T06:22:25;34.50;;;26.23;;
58468;SDS011;44257;44.804;10.220;2024-02-26T06:24:51;29.55;;;25.33;;
58468;SDS011;44257;44.804;10.220;2024-02-26T06:27:17;31.10;;;24.63;;
58468;SDS011;44257;44.804;10.220;2024-02-26T06:29:43;33.03;;;25.13;;
58468;SDS011;44257;44.804;10.220;2024-02-26T06:32:09;32.50;;;24.35;;
58468;SDS011;44257;44.804;10.220;2024-02-26T06:34:35;33.20;;;25.52;;
58468;SDS011;44257;44.804;10.220;2024-02-26T06:37:03;34.70;;;26.23;;
58468;SDS011;44257;44.804;10.220;2024-02-26T06:39:29;31.65;;;26.73;;
58468;SDS011;44257;44.804;10.220;2024-02-26T06:41:55;36.47;;;28.70;;
58468;SDS011;44257;44.804;10.220;2024-02-26T06:44:25;37.10;;;28.50;;
58468;SDS011;44257;44.804;10.220;2024-02-26T06:46:59;33.88;;;28.17;;
58468;SDS011;44257;44.804;10.220;2024-02-26T06:49:26;37.13;;;28.33;;
58468;SDS011;44257;44.804;10.220;2024-02-26T06:51:53;36.65;;;28.48;;
58468;SDS011;44257;44.804;10.220;2024-02-26T06:54:19;43.95;;;35.00;;
58468;SDS011;44257;44.804;10.220;2024-02-26T06:56:45;39.63;;;28.58;;
58468;SDS011;44257;44.804;10.220;2024-02-26T06:59:11;36.90;;;30.38;;
58468;SDS011;44257;44.804;10.220;2024-02-26T07:01:40;38.10;;;30.02;;
58468;SDS011;44257;44.804;10.220;2024-02-26T07:04:06;39.75;;;29.13;;
58468;SDS011;44257;44.804;10.220;2024-02-26T07:06:32;42.45;;;31.13;;
58468;SDS011;44257;44.804;10.220;2024-02-26T07:08:58;40.40;;;31.17;;
58468;SDS011;44257;44.804;10.220;2024-02-26T07:11:24;44.22;;;32.35;;
58468;SDS011;44257;44.804;10.220;2024-02-26T07:13:50;39.38;;;29.90;;
58468;SDS011;44257;44.804;10.220;2024-02-26T07:16:16;38.20;;;30.38;;
58468;SDS011;44257;44.804;10.220;2024-02-26T07:18:42;40.63;;;30.05;;
58468;SDS011;44257;44.804;10.220;2024-02-26T07:21:13;40.90;;;29.95;;
58468;SDS011;44257;44.804;10.220;2024-02-26T07:23:39;39.58;;;30.92;;
58468;SDS011;44257;44.804;10.220;2024-02-26T07:26:05;38.55;;;31.50;;
58468;SDS011;44257;44.804;10.220;2024-02-26T07:28:33;41.28;;;32.53;;
58468;SDS011;44257;44.804;10.220;2024-02-26T07:30:59;40.97;;;31.92;;
58468;SDS011;44257;44.804;10.220;2024-02-26T07:33:25;41.53;;;32.70;;
58468;SDS011;44257;44.804;10.220;2024-02-26T07:35:51;38.60;;;31.50;;
58468;SDS011;44257;44.804;10.220;2024-02-26T07:38:18;39.65;;;31.60;;
58468;SDS011;44257;44.804;10.220;2024-02-26T07:40:44;41.22;;;31.92;;
58468;SDS011;44257;44.804;10.220;2024-02-26T07:43:10;40.45;;;31.90;;
58468;SDS011;44257;44.804;10.220;2024-02-26T07:45:36;43.38;;;33.80;;
58468;SDS011;44257;44.804;10.220;2024-02-26T07:48:02;36.40;;;31.15;;
58468;SDS011;44257;44.804;10.220;2024-02-26T07:50:28;41.97;;;32.53;;
58468;SDS011;44257;44.804;10.220;2024-02-26T07:52:54;40.63;;;31.70;;
58468;SDS011;44257;44.804;10.220;2024-02-26T07:55:20;41.80;;;31.02;;
58468;SDS011;44257;44.804;10.220;2024-02-26T07:57:47;37.47;;;31.55;;
58468;SDS011;44257;44.804;10.220;2024-02-26T08:00:13;38.28;;;30.35;;
58468;SDS011;44257;44.804;10.220;2024-02-26T08:02:42;39.72;;;31.48;;
58468;SDS011;44257;44.804;10.220;2024-02-26T08:05:09;36.85;;;30.08;;
58468;SDS011;44257;44.804;10.220;2024-02-26T08:07:35;39.20;;;31.00;;
58468;SDS011;44257;44.804;10.220;2024-02-26T08:10:01;38.65;;;30.17;;
58468;SDS011;44257;44.804;10.220;2024-02-26T08:12:27;37.63;;;29.33;;
58468;SDS011;44257;44.804;10.220;2024-02-26T08:14:53;36.20;;;30.23;;
58468;SDS011;44257;44.804;10.220;2024-02-26T08:17:19;36.17;;;27.80;;
58468;SDS011;44257;44.804;10.220;2024-02-26T08:19:45;37.28;;;29.70;;
58468;SDS011;44257;44.804;10.220;2024-02-26T08:22:10;34.63;;;28.45;;
58468;SDS011;44257;44.804;10.220;2024-02-26T08:24:44;33.95;;;28.00;;
58468;SDS011;44257;44.804;10.220;2024-02-26T08:27:10;34.00;;;28.10;;
58468;SDS011;44257;44.804;10.220;2024-02-26T08:29:36;33.40;;;27.73;;
58468;SDS011;44257;44.804;10.220;2024-02-26T08:32:02;33.33;;;27.20;;
58468;SDS011;44257;44.804;10.220;2024-02-26T08:34:28;35.95;;;27.70;;
58468;SDS011;44257;44.804;10.220;2024-02-26T08:36:54;34.38;;;26.80;;
58468;SDS011;44257;44.804;10.220;2024-02-26T08:39:19;31.88;;;27.17;;
58468;SDS011;44257;44.804;10.220;2024-02-26T08:41:45;34.47;;;26.05;;
58468;SDS011;44257;44.804;10.220;2024-02-26T08:44:11;31.83;;;26.05;;
58468;SDS011;44257;44.804;10.220;2024-02-26T08:46:37;28.95;;;24.98;;
58468;SDS011;44257;44.804;10.220;2024-02-26T08:49:03;28.58;;;22.88;;
58468;SDS011;44257;44.804;10.220;2024-02-26T08:51:29;26.67;;;22.35;;
58468;SDS011;44257;44.804;10.220;2024-02-26T08:53:55;30.10;;;24.90;;
58468;SDS011;44257;44.804;10.220;2024-02-26T08:56:21;29.92;;;25.02;;
58468;SDS011;44257;44.804;10.220;2024-02-26T08:58:47;27.90;;;23.40;;
58468;SDS011;44257;44.804;10.220;2024-02-26T09:01:18;28.45;;;23.58;;
58468;SDS011;44257;44.804;10.220;2024-02-26T09:03:45;29.30;;;24.75;;
58468;SDS011;44257;44.804;10.220;2024-02-26T09:06:11;26.95;;;21.92;;
58468;SDS011;44257;44.804;10.220;2024-02-26T09:08:39;27.92;;;20.90;;
58468;SDS011;44257;44.804;10.220;2024-02-26T09:11:05;23.23;;;19.83;;
58468;SDS011;44257;44.804;10.220;2024-02-26T09:13:31;24.35;;;20.48;;
58468;SDS011;44257;44.804;10.220;2024-02-26T09:15:58;27.05;;;21.80;;
58468;SDS011;44257;44.804;10.220;2024-02-26T09:18:24;23.90;;;20.70;;
58468;SDS011;44257;44.804;10.220;2024-02-26T09:20:50;24.33;;;20.77;;
58468;SDS011;44257;44.804;10.220;2024-02-26T09:23:16;24.48;;;21.00;;
58468;SDS011;44257;44.804;10.220;2024-02-26T09:25:42;21.25;;;19.02;;
58468;SDS011;44257;44.804;10.220;2024-02-26T09:28:08;26.35;;;20.90;;
58468;SDS011;44257;44.804;10.220;2024-02-26T09:30:34;22.52;;;18.40;;
58468;SDS011;44257;44.804;10.220;2024-02-26T09:33:00;20.95;;;18.05;;
58468;SDS011;44257;44.804;10.220;2024-02-26T09:35:26;21.92;;;18.17;;
58468;SDS011;44257;44.804;10.220;2024-02-26T09:37:52;21.48;;;16.42;;
58468;SDS011;44257;44.804;10.220;2024-02-26T09:40:19;17.90;;;15.18;;
58468;SDS011;44257;44.804;10.220;2024-02-26T09:42:45;35.33;;;31.38;;
58468;SDS011;44257;44.804;10.220;2024-02-26T09:45:12;19.83;;;16.75;;
58468;SDS011;44257;44.804;10.220;2024-02-26T09:50:09;15.18;;;12.25;;
58468;SDS011;44257;44.804;10.220;2024-02-26T09:52:39;13.90;;;11.70;;
58468;SDS011;44257;44.804;10.220;2024-02-26T09:55:07;14.20;;;11.40;;
58468;SDS011;44257;44.804;10.220;2024-02-26T09:57:37;13.75;;;11.70;;
58468;SDS011;44257;44.804;10.220;2024-02-26T10:00:03;15.30;;;12.43;;
58468;SDS011;44257;44.804;10.220;2024-02-26T10:02:33;14.90;;;11.90;;
58468;SDS011;44257;44.804;10.220;2024-02-26T10:05:02;13.95;;;11.38;;
58468;SDS011;44257;44.804;10.220;2024-02-26T10:07:31;14.63;;;11.93;;
58468;SDS011;44257;44.804;10.220;2024-02-26T10:09:57;12.30;;;10.93;;
58468;SDS011;44257;44.804;10.220;2024-02-26T10:12:23;15.80;;;11.40;;
58468;SDS011;44257;44.804;10.220;2024-02-26T10:14:51;16.52;;;12.35;;
58468;SDS011;44257;44.804;10.220;2024-02-26T10:17:17;16.30;;;12.30;;
58468;SDS011;44257;44.804;10.220;2024-02-26T10:19:45;12.68;;;11.35;;
58468;SDS011;44257;44.804;10.220;2024-02-26T10:22:11;13.80;;;12.13;;
58468;SDS011;44257;44.804;10.220;2024-02-26T10:24:37;15.45;;;11.88;;
58468;SDS011;44257;44.804;10.220;2024-02-26T10:27:03;16.25;;;12.25;;
58468;SDS011;44257;44.804;10.220;2024-02-26T10:29:29;14.13;;;12.02;;
58468;SDS011;44257;44.804;10.220;2024-02-26T10:31:56;13.27;;;11.60;;
58468;SDS011;44257;44.804;10.220;2024-02-26T10:34:22;16.13;;;11.93;;
58468;SDS011;44257;44.804;10.220;2024-02-26T10:36:49;14.98;;;12.00;;
58468;SDS011;44257;44.804;10.220;2024-02-26T10:39:14;14.70;;;12.63;;
58468;SDS011;44257;44.804;10.220;2024-02-26T10:41:41;16.42;;;12.10;;
58468;SDS011;44257;44.804;10.220;2024-02-26T10:44:12;14.80;;;11.45;;
58468;SDS011;44257;44.804;10.220;2024-02-26T10:46:41;17.67;;;12.68;;
58468;SDS011;44257;44.804;10.220;2024-02-26T10:49:12;12.90;;;11.27;;
58468;SDS011;44257;44.804;10.220;2024-02-26T10:51:41;15.45;;;11.93;;
58468;SDS011;44257;44.804;10.220;2024-02-26T10:54:11;14.73;;;11.70;;
58468;SDS011;44257;44.804;10.220;2024-02-26T10:56:41;13.65;;;11.32;;
58468;SDS011;44257;44.804;10.220;2024-02-26T10:59:11;15.95;;;11.45;;
58468;SDS011;44257;44.804;10.220;2024-02-26T11:01:37;14.00;;;12.52;;
58468;SDS011;44257;44.804;10.220;2024-02-26T11:04:06;16.55;;;11.73;;
58468;SDS011;44257;44.804;10.220;2024-02-26T11:06:35;13.57;;;11.88;;
58468;SDS011;44257;44.804;10.220;2024-02-26T11:09:02;13.05;;;11.55;;
58468;SDS011;44257;44.804;10.220;2024-02-26T11:11:31;14.35;;;11.80;;
58468;SDS011;44257;44.804;10.220;2024-02-26T11:14:00;15.13;;;11.52;;
58468;SDS011;44257;44.804;10.220;2024-02-26T11:16:28;14.95;;;12.55;;
58468;SDS011;44257;44.804;10.220;2024-02-26T11:18:55;16.45;;;11.98;;
58468;SDS011;44257;44.804;10.220;2024-02-26T11:21:22;15.25;;;12.73;;
58468;SDS011;44257;44.804;10.220;2024-02-26T11:26:33;14.82;;;12.00;;
58468;SDS011;44257;44.804;10.220;2024-02-26T11:29:01;16.55;;;12.93;;
58468;SDS011;44257;44.804;10.220;2024-02-26T11:31:28;18.13;;;13.07;;
58468;SDS011;44257;44.804;10.220;2024-02-26T11:33:55;14.85;;;12.23;;
58468;SDS011;44257;44.804;10.220;2024-02-26T11:36:21;14.27;;;12.02;;
58468;SDS011;44257;44.804;10.220;2024-02-26T11:38:49;15.02;;;12.63;;
58468;SDS011;44257;44.804;10.220;2024-02-26T11:41:17;14.82;;;11.40;;
58468;SDS011;44257;44.804;10.220;2024-02-26T11:43:50;13.80;;;12.07;;
58468;SDS011;44257;44.804;10.220;2024-02-26T11:46:42;14.05;;;11.60;;
58468;SDS011;44257;44.804;10.220;2024-02-26T11:51:56;15.88;;;12.30;;
58468;SDS011;44257;44.804;10.220;2024-02-26T11:57:23;14.18;;;12.15;;
58468;SDS011;44257;44.804;10.220;2024-02-26T12:00:14;14.05;;;11.40;;
58468;SDS011;44257;44.804;10.220;2024-02-26T12:02:52;14.13;;;10.82;;
58468;SDS011;44257;44.804;10.220;2024-02-26T12:05:26;14.25;;;10.65;;
58468;SDS011;44257;44.804;10.220;2024-02-26T12:08:00;11.45;;;10.15;;
58468;SDS011;44257;44.804;10.220;2024-02-26T12:10:40;12.75;;;9.38;;
58468;SDS011;44257;44.804;10.220;2024-02-26T12:13:12;11.80;;;9.40;;
58468;SDS011;44257;44.804;10.220;2024-02-26T12:15:41;9.45;;;8.45;;
58468;SDS011;44257;44.804;10.220;2024-02-26T12:18:19;11.57;;;8.38;;
58468;SDS011;44257;44.804;10.220;2024-02-26T12:20:46;11.35;;;7.88;;
58468;SDS011;44257;44.804;10.220;2024-02-26T12:23:22;11.68;;;8.52;;
58468;SDS011;44257;44.804;10.220;2024-02-26T12:25:48;10.55;;;8.55;;
58468;SDS011;44257;44.804;10.220;2024-02-26T12:28:15;11.02;;;8.90;;
58468;SDS011;44257;44.804;10.220;2024-02-26T12:30:41;9.90;;;7.47;;
58468;SDS011;44257;44.804;10.220;2024-02-26T12:33:06;10.85;;;9.20;;
58468;SDS011;44257;44.804;10.220;2024-02-26T12:35:33;9.07;;;7.65;;
58468;SDS011;44257;44.804;10.220;2024-02-26T12:38:00;12.13;;;8.27;;
58468;SDS011;44257;44.804;10.220;2024-02-26T12:40:28;10.27;;;8.05;;
58468;SDS011;44257;44.804;10.220;2024-02-26T12:42:54;9.52;;;8.52;;
58468;SDS011;44257;44.804;10.220;2024-02-26T12:45:20;8.68;;;6.85;;
58468;SDS011;44257;44.804;10.220;2024-02-26T12:47:46;8.93;;;7.68;;
58468;SDS011;44257;44.804;10.220;2024-02-26T12:50:13;9.18;;;7.28;;
58468;SDS011;44257;44.804;10.220;2024-02-26T12:52:40;11.25;;;7.15;;
58468;SDS011;44257;44.804;10.220;2024-02-26T12:55:08;10.15;;;7.05;;
58468;SDS011;44257;44.804;10.220;2024-02-26T12:57:38;8.05;;;6.68;;
58468;SDS011;44257;44.804;10.220;2024-02-26T13:00:04;8.02;;;6.72;;
58468;SDS011;44257;44.804;10.220;2024-02-26T13:02:35;8.90;;;5.80;;
58468;SDS011;44257;44.804;10.220;2024-02-26T13:05:05;8.27;;;6.03;;
58468;SDS011;44257;44.804;10.220;2024-02-26T13:07:33;7.80;;;6.50;;
58468;SDS011;44257;44.804;10.220;2024-02-26T13:09:59;8.10;;;6.10;;
58468;SDS011;44257;44.804;10.220;2024-02-26T13:12:26;7.00;;;5.72;;
58468;SDS011;44257;44.804;10.220;2024-02-26T13:15:01;6.22;;;4.75;;
58468;SDS011;44257;44.804;10.220;2024-02-26T13:17:31;5.90;;;4.00;;
58468;SDS011;44257;44.804;10.220;2024-02-26T13:19:58;4.68;;;3.55;;
58468;SDS011;44257;44.804;10.220;2024-02-26T13:22:23;3.53;;;2.05;;
58468;SDS011;44257;44.804;10.220;2024-02-26T13:24:53;3.45;;;2.10;;
58468;SDS011;44257;44.804;10.220;2024-02-26T13:27:24;3.30;;;1.80;;
58468;SDS011;44257;44.804;10.220;2024-02-26T13:30:08;3.05;;;1.80;;
58468;SDS011;44257;44.804;10.220;2024-02-26T13:32:36;4.57;;;1.90;;
58468;SDS011;44257;44.804;10.220;2024-02-26T13:35:06;3.60;;;2.03;;
58468;SDS011;44257;44.804;10.220;2024-02-26T13:37:34;5.50;;;2.58;;
58468;SDS011;44257;44.804;10.220;2024-02-26T13:40:00;4.85;;;2.45;;
58468;SDS011;44257;44.804;10.220;2024-02-26T13:42:30;4.80;;;2.78;;
58468;SDS011;44257;44.804;10.220;2024-02-26T13:44:56;5.18;;;2.50;;
58468;SDS011;44257;44.804;10.220;2024-02-26T13:47:22;4.10;;;2.83;;
58468;SDS011;44257;44.804;10.220;2024-02-26T13:49:48;5.15;;;3.08;;
58468;SDS011;44257;44.804;10.220;2024-02-26T13:52:14;5.40;;;4.38;;
58468;SDS011;44257;44.804;10.220;2024-02-26T13:54:39;8.52;;;5.25;;
58468;SDS011;44257;44.804;10.220;2024-02-26T13:57:06;9.70;;;8.63;;
58468;SDS011;44257;44.804;10.220;2024-02-26T13:59:32;7.63;;;5.40;;
58468;SDS011;44257;44.804;10.220;2024-02-26T14:01:58;7.43;;;5.70;;
58468;SDS011;44257;44.804;10.220;2024-02-26T14:04:23;8.77;;;6.00;;
58468;SDS011;44257;44.804;10.220;2024-02-26T14:06:50;8.18;;;7.05;;
58468;SDS011;44257;44.804;10.220;2024-02-26T14:09:16;11.15;;;9.30;;
58468;SDS011;44257;44.804;10.220;2024-02-26T14:11:47;9.13;;;6.15;;
58468;SDS011;44257;44.804;10.220;2024-02-26T14:14:13;8.38;;;6.93;;
58468;SDS011;44257;44.804;10.220;2024-02-26T14:16:39;8.63;;;7.78;;
58468;SDS011;44257;44.804;10.220;2024-02-26T14:19:05;6.72;;;4.90;;
58468;SDS011;44257;44.804;10.220;2024-02-26T14:21:30;10.88;;;6.43;;
58468;SDS011;44257;44.804;10.220;2024-02-26T14:23:56;8.35;;;6.10;;
58468;SDS011;44257;44.804;10.220;2024-02-26T14:26:22;5.95;;;4.25;;
58468;SDS011;44257;44.804;10.220;2024-02-26T14:28:49;6.85;;;4.30;;
58468;SDS011;44257;44.804;10.220;2024-02-26T14:31:18;4.38;;;3.47;;